Time;durP1;ratioP1;P1;durP2;ratioP2;P2;SDS_P1;SDS_P2;PMS_P1;PMS_P2;Temp;Humidity;BMP_temperature;BMP_pressure;BME280_temperature;BME280_humidity;BME280_pressure;Samples;Min_cycle;Max_cycle;Signal;HPM_P1;HPM_P2
2023/12/23 00:00:31;;;;;;;27.38;26.33;;;;;;;;;;4955352;28;20500;-79
2023/12/23 00:03:00;;;;;;;34.28;32.97;;;;;;;;;;4954891;28;20456;-79
2023/12/23 00:05:27;;;;;;;27.38;26.27;;;;;;;;;;4954952;28;20106;-79
2023/12/23 00:07:53;;;;;;;36.03;34.72;;;;;;;;;;4955203;28;20051;-79
2023/12/23 00:10:20;;;;;;;37.10;35.72;;;;;;;;;;4955092;28;20464;-79
2023/12/23 00:12:46;;;;;;;35.88;34.45;;;;;;;;;;4954891;28;20051;-79
2023/12/23 00:15:12;;;;;;;39.58;38.15;;;;;;;;;;4955231;28;20055;-79
2023/12/23 00:17:39;;;;;;;32.22;31.00;;;;;;;;;;4954563;28;20051;-78
2023/12/23 00:20:08;;;;;;;28.33;27.23;;;;;;;;;;4953348;28;20464;-78
2023/12/23 00:22:35;;;;;;;28.80;27.80;;;;;;;;;;4954827;28;20122;-78
2023/12/23 00:25:01;;;;;;;40.15;38.70;;;;;;;;;;4954678;28;20051;-78
2023/12/23 00:27:27;;;;;;;33.58;32.20;;;;;;;;;;4954343;28;20512;-78
2023/12/23 00:29:53;;;;;;;28.63;27.58;;;;;;;;;;4954367;28;20094;-78
2023/12/23 00:32:19;;;;;;;27.15;26.17;;;;;;;;;;4954463;28;20109;-78
2023/12/23 00:34:46;;;;;;;31.27;30.17;;;;;;;;;;4954341;28;20102;-78
2023/12/23 00:37:14;;;;;;;27.73;26.67;;;;;;;;;;4953233;28;20051;-78
2023/12/23 00:39:40;;;;;;;40.35;38.95;;;;;;;;;;4954573;28;20051;-78
2023/12/23 00:42:07;;;;;;;40.53;39.00;;;;;;;;;;4954162;28;20058;-78
2023/12/23 00:44:33;;;;;;;26.10;25.10;;;;;;;;;;4954495;28;20047;-79
2023/12/23 00:47:00;;;;;;;32.63;31.23;;;;;;;;;;4954220;28;20094;-79
2023/12/23 00:49:26;;;;;;;35.85;34.58;;;;;;;;;;4954882;28;20398;-79
2023/12/23 00:51:53;;;;;;;29.10;28.00;;;;;;;;;;4954218;28;20051;-79
2023/12/23 00:54:22;;;;;;;30.23;29.17;;;;;;;;;;4952825;28;20057;-80
2023/12/23 00:56:49;;;;;;;26.67;25.58;;;;;;;;;;4954126;28;20125;-79
2023/12/23 00:59:15;;;;;;;33.35;32.13;;;;;;;;;;4954312;28;20051;-81
2023/12/23 01:01:43;;;;;;;25.60;24.60;;;;;;;;;;4954184;28;20113;-80
2023/12/23 01:04:09;;;;;;;32.85;31.63;;;;;;;;;;4953823;28;20141;-80
2023/12/23 01:06:36;;;;;;;40.47;38.90;;;;;;;;;;4953956;28;20460;-79
2023/12/23 01:09:04;;;;;;;32.45;31.25;;;;;;;;;;4953806;28;20047;-78
2023/12/23 01:11:32;;;;;;;36.50;35.22;;;;;;;;;;4952585;28;20489;-79
2023/12/23 01:13:58;;;;;;;36.78;35.47;;;;;;;;;;4953740;28;20047;-80
2023/12/23 01:16:25;;;;;;;23.52;22.63;;;;;;;;;;4953968;28;20106;-78
2023/12/23 01:18:51;;;;;;;35.72;34.45;;;;;;;;;;4953415;28;20054;-77
2023/12/23 01:21:20;;;;;;;31.20;30.02;;;;;;;;;;4953511;28;20102;-77
2023/12/23 01:23:46;;;;;;;26.38;25.38;;;;;;;;;;4953836;28;20130;-77
2023/12/23 01:26:13;;;;;;;25.27;24.15;;;;;;;;;;4952724;28;20047;-77
2023/12/23 01:28:41;;;;;;;32.28;31.13;;;;;;;;;;4953962;28;20095;-75
2023/12/23 01:31:07;;;;;;;28.52;27.50;;;;;;;;;;4953682;28;20059;-77
2023/12/23 01:33:33;;;;;;;31.15;30.02;;;;;;;;;;4953610;28;20055;-77
2023/12/23 01:35:59;;;;;;;35.17;33.88;;;;;;;;;;4953703;28;20055;-78
2023/12/23 01:38:26;;;;;;;35.55;34.30;;;;;;;;;;4953828;28;20059;-77
2023/12/23 01:40:52;;;;;;;30.02;28.98;;;;;;;;;;4953709;28;20047;-78
2023/12/23 01:43:18;;;;;;;24.92;24.02;;;;;;;;;;4957714;28;20098;-78
2023/12/23 01:45:47;;;;;;;33.45;32.25;;;;;;;;;;4957461;28;20094;-77
2023/12/23 01:48:14;;;;;;;27.42;26.42;;;;;;;;;;4957562;28;20059;-77
2023/12/23 01:50:40;;;;;;;35.95;34.65;;;;;;;;;;4957506;28;20098;-77
2023/12/23 01:53:06;;;;;;;36.63;35.35;;;;;;;;;;4957403;28;20488;-79
2023/12/23 01:55:33;;;;;;;26.30;25.38;;;;;;;;;;4957513;28;20103;-79
2023/12/23 01:58:00;;;;;;;26.35;25.42;;;;;;;;;;4955920;28;20055;-79
2023/12/23 02:00:27;;;;;;;22.45;21.65;;;;;;;;;;4957449;28;20106;-80
2023/12/23 02:02:54;;;;;;;26.42;25.52;;;;;;;;;;4957377;28;20106;-79
2023/12/23 02:05:21;;;;;;;26.45;25.42;;;;;;;;;;4957387;28;20048;-79
2023/12/23 02:07:49;;;;;;;37.22;35.90;;;;;;;;;;4957586;28;20184;-78
2023/12/23 02:10:16;;;;;;;27.20;26.20;;;;;;;;;;4957637;28;20070;-79
2023/12/23 02:12:49;;;;;;;26.73;25.75;;;;;;;;;;4957160;28;20051;-79
2023/12/23 02:15:16;;;;;;;25.08;24.20;;;;;;;;;;4955888;28;20047;-78
2023/12/23 02:17:42;;;;;;;20.00;19.30;;;;;;;;;;4957121;28;20055;-77
2023/12/23 02:20:11;;;;;;;23.00;22.17;;;;;;;;;;4956846;28;20138;-78
2023/12/23 02:22:39;;;;;;;25.25;24.25;;;;;;;;;;4957027;28;20111;-78
2023/12/23 02:25:06;;;;;;;21.67;20.77;;;;;;;;;;4957195;28;20047;-79
2023/12/23 02:27:36;;;;;;;24.80;23.90;;;;;;;;;;4956620;28;20059;-78
2023/12/23 02:30:03;;;;;;;34.22;33.03;;;;;;;;;;4954343;28;20110;-78
2023/12/23 02:32:30;;;;;;;26.88;25.88;;;;;;;;;;4954862;28;20118;-77
2023/12/23 02:34:57;;;;;;;32.05;30.83;;;;;;;;;;4955739;28;20102;-77
2023/12/23 02:37:23;;;;;;;24.95;24.05;;;;;;;;;;4955697;28;20417;-77
2023/12/23 02:39:51;;;;;;;36.75;35.42;;;;;;;;;;4954469;28;20051;-75
2023/12/23 02:42:18;;;;;;;28.90;27.83;;;;;;;;;;4954539;28;20563;-75
2023/12/23 02:44:44;;;;;;;27.92;26.83;;;;;;;;;;4955205;28;20039;-77
2023/12/23 02:47:11;;;;;;;22.15;21.35;;;;;;;;;;4953709;28;20051;-77
2023/12/23 02:49:37;;;;;;;22.13;21.33;;;;;;;;;;4954908;28;20580;-78
2023/12/23 02:52:04;;;;;;;27.45;26.38;;;;;;;;;;4954826;28;20051;-77
2023/12/23 02:54:30;;;;;;;35.75;34.35;;;;;;;;;;4955163;28;20047;-78
2023/12/23 02:56:58;;;;;;;25.92;25.00;;;;;;;;;;4954739;28;20505;-78
2023/12/23 02:59:25;;;;;;;27.50;26.48;;;;;;;;;;4955065;28;20106;-76
2023/12/23 03:01:53;;;;;;;24.65;23.75;;;;;;;;;;4955138;28;20051;-76
2023/12/23 03:04:19;;;;;;;29.25;28.17;;;;;;;;;;4954075;28;20110;-76
2023/12/23 03:06:45;;;;;;;38.28;36.88;;;;;;;;;;4954955;28;20055;-76
2023/12/23 03:09:12;;;;;;;23.17;22.27;;;;;;;;;;4955170;28;20059;-76
2023/12/23 03:11:39;;;;;;;27.17;26.17;;;;;;;;;;4954835;28;20139;-76
2023/12/23 03:14:07;;;;;;;30.52;29.35;;;;;;;;;;4955024;28;20043;-77
2023/12/23 03:16:35;;;;;;;31.92;30.70;;;;;;;;;;4955624;28;20122;-77
2023/12/23 03:19:02;;;;;;;38.35;36.95;;;;;;;;;;4953890;28;20083;-75
2023/12/23 03:21:28;;;;;;;28.02;26.85;;;;;;;;;;4954467;29;20055;-78
2023/12/23 03:23:55;;;;;;;27.30;26.30;;;;;;;;;;4955026;28;20047;-77
2023/12/23 03:26:21;;;;;;;35.50;34.17;;;;;;;;;;4954647;28;20047;-77
2023/12/23 03:28:48;;;;;;;33.67;32.45;;;;;;;;;;4916856;28;1141270;-78
2023/12/23 03:31:16;;;;;;;31.52;30.38;;;;;;;;;;4956005;28;20059;-77
2023/12/23 03:33:42;;;;;;;31.02;29.83;;;;;;;;;;4955601;28;20114;-77
2023/12/23 03:36:09;;;;;;;26.08;25.08;;;;;;;;;;4954253;28;20102;-77
2023/12/23 03:38:35;;;;;;;33.25;32.05;;;;;;;;;;4955487;28;20102;-77
2023/12/23 03:41:02;;;;;;;23.70;22.75;;;;;;;;;;4955213;28;20059;-78
2023/12/23 03:43:28;;;;;;;38.38;36.85;;;;;;;;;;4955382;28;20047;-77
2023/12/23 03:45:55;;;;;;;22.33;21.52;;;;;;;;;;4955570;28;20047;-77
2023/12/23 03:48:23;;;;;;;32.40;31.10;;;;;;;;;;4953792;28;20122;-76
2023/12/23 03:50:49;;;;;;;23.45;22.55;;;;;;;;;;4955447;28;20059;-77
2023/12/23 03:53:16;;;;;;;23.17;22.33;;;;;;;;;;4955016;28;20544;-76
2023/12/23 03:55:42;;;;;;;23.85;22.98;;;;;;;;;;4955504;28;20452;-76
2023/12/23 03:58:08;;;;;;;29.88;28.65;;;;;;;;;;4955085;28;20106;-77
2023/12/23 04:00:35;;;;;;;27.05;26.02;;;;;;;;;;4955414;28;20051;-76
2023/12/23 04:03:02;;;;;;;28.20;27.17;;;;;;;;;;4954488;28;20142;-77
2023/12/23 04:05:29;;;;;;;21.73;20.92;;;;;;;;;;4954416;28;20043;-76
2023/12/23 04:07:56;;;;;;;21.30;20.52;;;;;;;;;;4955429;28;20109;-76
2023/12/23 04:10:22;;;;;;;25.77;24.83;;;;;;;;;;4954566;28;20056;-76
2023/12/23 04:12:49;;;;;;;30.02;28.95;;;;;;;;;;4954761;28;20614;-76
2023/12/23 04:15:15;;;;;;;20.85;20.08;;;;;;;;;;4954864;28;20051;-76
2023/12/23 04:17:42;;;;;;;24.02;23.13;;;;;;;;;;4954825;28;20114;-76
2023/12/23 04:20:09;;;;;;;30.08;29.00;;;;;;;;;;4954736;28;20138;-77
2023/12/23 04:22:37;;;;;;;28.05;26.95;;;;;;;;;;4953415;28;20110;-76
2023/12/23 04:25:04;;;;;;;25.95;24.55;;;;;;;;;;4954479;28;20055;-76
2023/12/23 04:27:30;;;;;;;32.53;31.38;;;;;;;;;;4954575;28;20063;-76
2023/12/23 04:29:57;;;;;;;23.85;22.95;;;;;;;;;;4954855;28;20102;-77
2023/12/23 04:32:23;;;;;;;23.38;22.58;;;;;;;;;;4954456;28;20111;-76
2023/12/23 04:34:50;;;;;;;29.20;28.15;;;;;;;;;;4954557;28;20051;-77
2023/12/23 04:37:16;;;;;;;21.08;20.27;;;;;;;;;;4954630;28;20492;-76
2023/12/23 04:39:44;;;;;;;24.73;23.83;;;;;;;;;;4952786;28;20079;-76
2023/12/23 04:42:11;;;;;;;30.40;29.30;;;;;;;;;;4954325;28;20093;-76
2023/12/23 04:44:37;;;;;;;24.42;23.42;;;;;;;;;;4954474;28;20568;-76
2023/12/23 04:47:04;;;;;;;27.30;26.30;;;;;;;;;;4952806;28;20472;-76
2023/12/23 04:49:31;;;;;;;28.92;27.80;;;;;;;;;;4943662;28;20056;-76
2023/12/23 04:51:57;;;;;;;22.40;21.50;;;;;;;;;;4935108;29;20126;-76
2023/12/23 04:54:23;;;;;;;27.17;26.17;;;;;;;;;;4935854;29;20103;-76
2023/12/23 04:56:51;;;;;;;25.17;24.20;;;;;;;;;;4946211;29;20054;-77
2023/12/23 04:59:17;;;;;;;19.00;18.20;;;;;;;;;;4953695;28;20047;-76
2023/12/23 05:01:43;;;;;;;32.65;31.50;;;;;;;;;;4953583;28;20468;-76
2023/12/23 05:04:10;;;;;;;18.92;18.23;;;;;;;;;;4953758;28;20051;-76
2023/12/23 05:06:36;;;;;;;19.60;18.88;;;;;;;;;;4952774;28;20386;-76
2023/12/23 05:09:05;;;;;;;33.33;32.13;;;;;;;;;;4954054;28;20102;-76
2023/12/23 05:11:32;;;;;;;26.08;25.05;;;;;;;;;;4954065;28;20055;-75
2023/12/23 05:13:59;;;;;;;26.23;25.20;;;;;;;;;;4953855;28;20529;-76
2023/12/23 05:16:26;;;;;;;26.65;25.55;;;;;;;;;;4953831;28;20119;-76
2023/12/23 05:18:52;;;;;;;29.55;28.42;;;;;;;;;;4953823;28;20059;-76
2023/12/23 05:21:19;;;;;;;25.63;24.67;;;;;;;;;;4952582;28;20661;-76
2023/12/23 05:23:45;;;;;;;26.13;25.23;;;;;;;;;;4954022;28;20051;-76
2023/12/23 05:26:12;;;;;;;24.83;23.95;;;;;;;;;;4953848;28;20110;-76
2023/12/23 05:28:38;;;;;;;25.98;25.08;;;;;;;;;;4953399;28;20101;-76
2023/12/23 05:31:06;;;;;;;30.00;28.92;;;;;;;;;;4952012;28;20043;-75
2023/12/23 05:33:33;;;;;;;27.02;26.05;;;;;;;;;;4953847;28;20493;-76
2023/12/23 05:35:59;;;;;;;26.58;25.58;;;;;;;;;;4953636;28;20123;-76
2023/12/23 05:38:26;;;;;;;32.60;31.20;;;;;;;;;;4953725;28;20051;-75
2023/12/23 05:40:52;;;;;;;20.23;19.48;;;;;;;;;;4953493;28;20468;-76
2023/12/23 05:43:19;;;;;;;31.27;30.08;;;;;;;;;;4953933;28;20055;-75
2023/12/23 05:45:45;;;;;;;28.98;27.85;;;;;;;;;;4954094;28;20051;-75
2023/12/23 05:48:13;;;;;;;28.00;26.95;;;;;;;;;;4950894;28;20122;-75
2023/12/23 05:50:40;;;;;;;28.20;27.08;;;;;;;;;;4953607;28;20052;-75
2023/12/23 05:53:08;;;;;;;23.95;22.92;;;;;;;;;;4953479;28;20051;-76
2023/12/23 05:55:34;;;;;;;32.42;31.10;;;;;;;;;;4953285;28;20091;-76
2023/12/23 05:58:01;;;;;;;26.63;25.65;;;;;;;;;;4953452;28;20055;-77
2023/12/23 06:00:28;;;;;;;39.70;37.92;;;;;;;;;;4953611;28;20054;-76
2023/12/23 06:02:54;;;;;;;25.33;24.13;;;;;;;;;;4953441;28;20110;-76
2023/12/23 06:05:22;;;;;;;27.60;26.17;;;;;;;;;;4951930;28;20481;-75
2023/12/23 06:07:48;;;;;;;27.38;26.27;;;;;;;;;;4953674;28;20095;-76
2023/12/23 06:10:15;;;;;;;25.08;23.75;;;;;;;;;;4953406;28;20047;-76
2023/12/23 06:12:41;;;;;;;28.13;26.92;;;;;;;;;;4953387;28;20563;-76
2023/12/23 06:15:09;;;;;;;37.30;35.85;;;;;;;;;;4953166;28;20125;-76
2023/12/23 06:17:36;;;;;;;26.45;25.45;;;;;;;;;;4953258;28;20136;-76
2023/12/23 06:20:04;;;;;;;22.92;22.02;;;;;;;;;;4952025;28;20119;-75
2023/12/23 06:22:31;;;;;;;21.58;20.75;;;;;;;;;;4953574;28;20059;-76
2023/12/23 06:24:58;;;;;;;24.60;23.48;;;;;;;;;;4953046;28;20107;-75
2023/12/23 06:27:24;;;;;;;18.30;17.58;;;;;;;;;;4955140;28;20110;-77
2023/12/23 06:29:51;;;;;;;18.90;18.05;;;;;;;;;;4955523;28;20048;-76
2023/12/23 06:32:17;;;;;;;19.98;18.98;;;;;;;;;;4957372;28;20062;-75
2023/12/23 06:34:44;;;;;;;22.42;21.60;;;;;;;;;;4956899;28;20481;-75
2023/12/23 06:37:10;;;;;;;20.65;19.90;;;;;;;;;;4955250;28;20122;-75
2023/12/23 06:39:38;;;;;;;23.52;22.60;;;;;;;;;;4956515;28;20051;-76
2023/12/23 06:42:05;;;;;;;18.23;17.58;;;;;;;;;;4956292;28;20055;-75
2023/12/23 06:44:31;;;;;;;24.48;23.55;;;;;;;;;;4956468;28;20051;-75
2023/12/23 06:46:58;;;;;;;20.80;20.05;;;;;;;;;;4956528;28;20051;-76
2023/12/23 06:49:27;;;;;;;17.98;17.20;;;;;;;;;;4954624;28;20102;-75
2023/12/23 06:51:53;;;;;;;20.85;20.13;;;;;;;;;;4956106;28;20047;-75
2023/12/23 06:54:20;;;;;;;16.15;15.45;;;;;;;;;;4956475;28;20469;-75
2023/12/23 06:56:48;;;;;;;22.48;21.58;;;;;;;;;;4956172;28;20106;-75
2023/12/23 06:59:14;;;;;;;18.65;17.85;;;;;;;;;;4947746;28;20493;-74
2023/12/23 07:01:41;;;;;;;24.17;22.77;;;;;;;;;;4946619;28;20059;-75
2023/12/23 07:04:08;;;;;;;19.95;19.15;;;;;;;;;;4955353;28;20110;-77
2023/12/23 07:06:34;;;;;;;26.52;25.20;;;;;;;;;;4955849;28;20102;-77
2023/12/23 07:09:01;;;;;;;21.40;20.33;;;;;;;;;;4956224;28;20051;-77
2023/12/23 07:11:28;;;;;;;18.83;18.00;;;;;;;;;;4956373;28;20114;-76
2023/12/23 07:13:55;;;;;;;20.42;19.55;;;;;;;;;;4950448;28;20051;-77
2023/12/23 07:16:22;;;;;;;21.88;21.05;;;;;;;;;;4956109;28;20059;-77
2023/12/23 07:18:48;;;;;;;19.50;18.77;;;;;;;;;;4955926;28;20126;-77
2023/12/23 07:21:15;;;;;;;15.85;15.23;;;;;;;;;;4956089;28;20059;-77
2023/12/23 07:23:41;;;;;;;22.13;21.33;;;;;;;;;;4955965;28;20047;-77
2023/12/23 07:26:10;;;;;;;16.15;15.45;;;;;;;;;;4955454;28;20497;-77
2023/12/23 07:28:37;;;;;;;17.77;17.08;;;;;;;;;;4952104;28;20059;-76
2023/12/23 07:31:05;;;;;;;16.83;16.13;;;;;;;;;;4943383;28;20415;-77
2023/12/23 07:33:32;;;;;;;17.50;16.73;;;;;;;;;;4954308;28;20067;-77
2023/12/23 07:35:58;;;;;;;22.30;21.50;;;;;;;;;;4954881;28;20055;-79
2023/12/23 07:38:25;;;;;;;18.25;17.58;;;;;;;;;;4954022;28;20059;-81
2023/12/23 07:40:51;;;;;;;19.33;18.50;;;;;;;;;;4954838;28;20055;-76
2023/12/23 07:43:18;;;;;;;15.75;15.05;;;;;;;;;;4954706;28;20129;-76
2023/12/23 07:45:44;;;;;;;17.17;16.48;;;;;;;;;;4955005;28;20102;-75
2023/12/23 07:48:12;;;;;;;26.50;25.17;;;;;;;;;;4954876;28;20051;-77
2023/12/23 07:50:38;;;;;;;21.60;20.65;;;;;;;;;;4936154;28;20062;-75
2023/12/23 07:53:05;;;;;;;20.90;20.00;;;;;;;;;;4946014;28;20097;-76
2023/12/23 07:55:31;;;;;;;21.08;20.08;;;;;;;;;;4953713;28;20889;-75
2023/12/23 07:57:59;;;;;;;23.15;22.25;;;;;;;;;;4964716;28;20051;-76
2023/12/23 08:00:25;;;;;;;23.65;22.60;;;;;;;;;;4959875;28;20070;-76
2023/12/23 08:02:52;;;;;;;17.98;17.17;;;;;;;;;;4968477;28;20051;-77
2023/12/23 08:05:20;;;;;;;17.55;16.83;;;;;;;;;;4959365;28;20039;-75
2023/12/23 08:07:46;;;;;;;23.30;22.45;;;;;;;;;;4964875;28;20094;-76
2023/12/23 08:10:13;;;;;;;14.77;13.82;;;;;;;;;;4950780;28;20051;-75
2023/12/23 08:12:39;;;;;;;19.27;18.45;;;;;;;;;;4970402;28;20094;-81
2023/12/23 08:15:06;;;;;;;22.60;21.77;;;;;;;;;;4957888;28;20551;-81
2023/12/23 08:17:33;;;;;;;24.67;23.73;;;;;;;;;;4967601;28;20130;-81
2023/12/23 08:19:59;;;;;;;18.63;17.83;;;;;;;;;;4952664;28;20477;-83
2023/12/23 08:22:27;;;;;;;19.85;19.05;;;;;;;;;;4963766;28;20101;-82
2023/12/23 08:24:54;;;;;;;23.77;22.88;;;;;;;;;;4958292;28;20074;-82
2023/12/23 08:27:20;;;;;;;20.05;19.33;;;;;;;;;;4969207;28;20102;-82
2023/12/23 08:29:47;;;;;;;25.02;23.85;;;;;;;;;;4963221;28;20050;-82
2023/12/23 08:32:14;;;;;;;21.75;20.70;;;;;;;;;;4962061;28;20460;-83
2023/12/23 08:34:40;;;;;;;19.33;18.50;;;;;;;;;;4957420;28;20055;-82
2023/12/23 08:37:06;;;;;;;28.55;27.42;;;;;;;;;;4969698;28;20047;-83
2023/12/23 08:39:34;;;;;;;23.67;22.65;;;;;;;;;;4961259;28;20452;-83
2023/12/23 08:42:01;;;;;;;29.58;28.42;;;;;;;;;;4963173;28;20051;-81
2023/12/23 08:44:27;;;;;;;29.73;28.60;;;;;;;;;;4956185;28;20047;-82
2023/12/23 08:46:54;;;;;;;30.73;29.55;;;;;;;;;;4970044;28;20110;-82
2023/12/23 08:49:20;;;;;;;31.90;30.38;;;;;;;;;;4956183;28;20043;-81
2023/12/23 08:51:47;;;;;;;24.92;23.80;;;;;;;;;;4965019;28;20047;-84
2023/12/23 08:54:13;;;;;;;32.47;30.42;;;;;;;;;;4954205;28;20553;-83
2023/12/23 08:56:41;;;;;;;24.90;23.95;;;;;;;;;;4966239;28;20054;-82
2023/12/23 08:59:08;;;;;;;26.70;25.60;;;;;;;;;;4950701;28;20058;-82
2023/12/23 09:01:34;;;;;;;32.00;30.63;;;;;;;;;;4967083;28;20050;-82
2023/12/23 09:04:01;;;;;;;38.28;36.75;;;;;;;;;;4964425;28;20050;-82
2023/12/23 09:06:27;;;;;;;30.88;29.75;;;;;;;;;;4959975;28;20051;-83
2023/12/23 09:08:57;;;;;;;32.63;31.30;;;;;;;;;;4962039;28;20043;-83
2023/12/23 09:11:23;;;;;;;21.00;20.15;;;;;;;;;;4957676;28;20129;-82
2023/12/23 09:13:51;;;;;;;24.10;23.10;;;;;;;;;;4963983;28;20046;-76
2023/12/23 09:16:18;;;;;;;32.72;31.40;;;;;;;;;;4966272;28;20105;-84
2023/12/23 09:18:44;;;;;;;41.75;39.80;;;;;;;;;;4962711;28;20051;-80
2023/12/23 09:21:10;;;;;;;35.47;34.08;;;;;;;;;;4969061;28;20054;-82
2023/12/23 09:23:38;;;;;;;22.00;21.00;;;;;;;;;;4955223;28;20453;-82
2023/12/23 09:26:04;;;;;;;33.80;32.25;;;;;;;;;;4955164;28;20048;-81
2023/12/23 09:28:31;;;;;;;25.48;24.25;;;;;;;;;;4955230;28;20540;-82
2023/12/23 09:30:59;;;;;;;30.17;29.08;;;;;;;;;;4969621;28;20050;-83
2023/12/23 09:33:25;;;;;;;27.95;26.73;;;;;;;;;;4959118;28;20046;-81
2023/12/23 09:35:53;;;;;;;25.13;24.13;;;;;;;;;;4962758;28;20468;-82
2023/12/23 09:38:20;;;;;;;26.05;24.85;;;;;;;;;;4966438;28;20500;-82
2023/12/23 09:40:46;;;;;;;26.42;25.42;;;;;;;;;;4956388;28;20059;-81
2023/12/23 09:43:14;;;;;;;28.73;27.70;;;;;;;;;;4947312;28;20106;-82
2023/12/23 09:45:41;;;;;;;26.65;25.65;;;;;;;;;;4961517;28;20489;-82
2023/12/23 09:48:09;;;;;;;37.22;35.80;;;;;;;;;;4955602;28;20055;-81
2023/12/23 09:50:35;;;;;;;38.47;36.95;;;;;;;;;;4963456;28;20511;-81
2023/12/23 09:53:02;;;;;;;31.58;30.33;;;;;;;;;;4962829;28;20110;-81
2023/12/23 09:55:30;;;;;;;39.17;37.42;;;;;;;;;;4961702;28;20525;-81
2023/12/23 09:57:57;;;;;;;40.83;38.88;;;;;;;;;;4962817;28;20067;-82
2023/12/23 10:00:24;;;;;;;30.48;28.90;;;;;;;;;;4966618;28;20081;-81
2023/12/23 10:02:50;;;;;;;40.38;38.47;;;;;;;;;;4953812;28;20069;-81
2023/12/23 10:05:18;;;;;;;41.92;40.20;;;;;;;;;;4967432;28;20050;-81
2023/12/23 10:07:45;;;;;;;38.03;36.38;;;;;;;;;;4964893;28;20138;-81
2023/12/23 10:10:12;;;;;;;39.03;37.00;;;;;;;;;;4964306;28;20195;-83
2023/12/23 10:12:38;;;;;;;44.90;43.03;;;;;;;;;;4960591;28;20134;-81
2023/12/23 10:15:05;;;;;;;42.22;40.20;;;;;;;;;;4972611;28;20098;-81
2023/12/23 10:17:32;;;;;;;38.17;36.58;;;;;;;;;;4963136;28;20120;-81
2023/12/23 10:19:59;;;;;;;46.47;44.70;;;;;;;;;;4968188;28;20047;-82
2023/12/23 10:22:28;;;;;;;41.70;40.13;;;;;;;;;;4962246;28;20117;-81
2023/12/23 10:24:55;;;;;;;41.20;39.60;;;;;;;;;;4960779;28;20444;-81
2023/12/23 10:27:22;;;;;;;39.42;37.92;;;;;;;;;;4970468;28;20143;-81
2023/12/23 10:29:52;;;;;;;46.97;45.22;;;;;;;;;;4964961;28;20105;-80
2023/12/23 10:32:21;;;;;;;40.10;38.40;;;;;;;;;;4962674;28;20058;-81
2023/12/23 10:34:50;;;;;;;46.30;44.10;;;;;;;;;;4957025;28;20050;-82
2023/12/23 10:37:17;;;;;;;34.70;32.75;;;;;;;;;;4955615;28;20057;-81
2023/12/23 10:39:50;;;;;;;52.15;50.17;;;;;;;;;;4967673;28;20051;-81
2023/12/23 10:42:20;;;;;;;50.88;48.78;;;;;;;;;;4969269;28;20468;-80
2023/12/23 10:44:47;;;;;;;47.92;45.83;;;;;;;;;;4959243;28;20050;-80
2023/12/23 10:47:15;;;;;;;42.65;40.90;;;;;;;;;;4971861;28;20050;-81
2023/12/23 10:49:44;;;;;;;48.13;45.92;;;;;;;;;;4963712;28;20190;-79
2023/12/23 10:52:11;;;;;;;52.53;50.03;;;;;;;;;;4967902;28;20101;-80
2023/12/23 10:54:38;;;;;;;44.83;42.80;;;;;;;;;;4972352;28;20051;-80
2023/12/23 10:57:07;;;;;;;46.20;44.08;;;;;;;;;;4971686;28;20488;-80
2023/12/23 10:59:34;;;;;;;53.50;51.08;;;;;;;;;;4962667;28;20092;-80
2023/12/23 11:02:01;;;;;;;39.10;37.30;;;;;;;;;;4964701;28;20055;-80
2023/12/23 11:04:29;;;;;;;58.83;56.38;;;;;;;;;;4954266;28;20062;-80
2023/12/23 11:06:58;;;;;;;57.83;54.88;;;;;;;;;;4960061;28;20051;-80
2023/12/23 11:09:25;;;;;;;42.85;40.72;;;;;;;;;;4969635;28;20047;-80
2023/12/23 11:11:52;;;;;;;46.55;44.45;;;;;;;;;;4962802;28;20500;-80
2023/12/23 11:14:20;;;;;;;55.88;53.40;;;;;;;;;;4955218;28;20114;-81
2023/12/23 11:16:49;;;;;;;55.63;53.22;;;;;;;;;;4955982;28;20118;-81
2023/12/23 11:19:16;;;;;;;53.40;50.97;;;;;;;;;;4960512;28;20050;-78
2023/12/23 11:21:44;;;;;;;54.53;52.25;;;;;;;;;;4962277;28;20078;-79
2023/12/23 11:24:29;;;;;;;45.80;43.50;;;;;;;;;;4955456;28;20047;-78
2023/12/23 11:26:55;;;;;;;56.33;53.95;;;;;;;;;;4955100;28;20071;-78
2023/12/23 11:29:23;;;;;;;55.28;52.83;;;;;;;;;;4955087;28;20404;-81
2023/12/23 11:31:50;;;;;;;48.00;45.63;;;;;;;;;;4955141;28;20464;-76
2023/12/23 11:34:17;;;;;;;61.33;58.78;;;;;;;;;;4954263;28;20106;-78
2023/12/23 11:36:44;;;;;;;57.42;54.95;;;;;;;;;;4954780;28;20046;-80
2023/12/23 11:39:12;;;;;;;53.38;50.95;;;;;;;;;;4955415;28;20047;-80
2023/12/23 11:41:40;;;;;;;45.90;43.90;;;;;;;;;;4960442;28;20055;-79
2023/12/23 11:44:07;;;;;;;55.28;51.95;;;;;;;;;;4960847;28;20051;-81
2023/12/23 11:46:36;;;;;;;55.42;52.85;;;;;;;;;;4963909;28;20165;-79
2023/12/23 11:49:02;;;;;;;65.40;62.25;;;;;;;;;;4971255;28;20465;-80
2023/12/23 11:51:29;;;;;;;61.58;58.85;;;;;;;;;;4968845;28;20452;-80
2023/12/23 11:53:57;;;;;;;55.58;52.78;;;;;;;;;;4961525;28;20471;-80
2023/12/23 11:56:23;;;;;;;56.17;53.15;;;;;;;;;;4959032;28;20047;-80
2023/12/23 11:58:50;;;;;;;53.55;50.75;;;;;;;;;;4965282;28;20508;-80
2023/12/23 12:01:18;;;;;;;57.33;54.72;;;;;;;;;;4960584;28;20047;-81
2023/12/23 12:03:47;;;;;;;67.53;64.47;;;;;;;;;;4962508;28;20051;-82
2023/12/23 12:06:14;;;;;;;60.53;57.72;;;;;;;;;;4973830;28;20047;-81
2023/12/23 12:08:40;;;;;;;59.30;56.78;;;;;;;;;;4959007;28;20047;-81
2023/12/23 12:11:07;;;;;;;82.40;78.95;;;;;;;;;;4961781;28;20153;-83
2023/12/23 12:13:35;;;;;;;85.78;82.28;;;;;;;;;;4954682;28;20068;-80
2023/12/23 12:16:02;;;;;;;68.00;64.68;;;;;;;;;;4964802;28;20055;-81
2023/12/23 12:18:28;;;;;;;53.75;51.00;;;;;;;;;;4955684;28;20047;-81
2023/12/23 12:20:57;;;;;;;61.35;58.55;;;;;;;;;;4954806;28;20051;-81
2023/12/23 12:23:23;;;;;;;60.00;57.25;;;;;;;;;;4968385;28;20083;-80
2023/12/23 12:25:50;;;;;;;58.67;55.83;;;;;;;;;;4952701;28;20058;-80
2023/12/23 12:28:17;;;;;;;69.43;66.25;;;;;;;;;;4953600;28;20062;-80
2023/12/23 12:30:44;;;;;;;49.55;47.22;;;;;;;;;;4950409;28;20500;-83
2023/12/23 12:33:11;;;;;;;59.13;56.53;;;;;;;;;;4955266;28;20397;-80
2023/12/23 12:35:37;;;;;;;54.50;51.78;;;;;;;;;;4959410;28;20113;-80
2023/12/23 12:38:08;;;;;;;54.47;51.65;;;;;;;;;;4962507;28;20117;-81
2023/12/23 12:40:35;;;;;;;56.38;53.78;;;;;;;;;;4959270;28;20050;-81
2023/12/23 12:43:05;;;;;;;67.15;64.15;;;;;;;;;;4970105;28;20081;-82
2023/12/23 12:45:35;;;;;;;62.88;60.22;;;;;;;;;;4959917;28;20089;-82
2023/12/23 12:48:05;;;;;;;62.08;59.45;;;;;;;;;;4958154;28;20051;-82
2023/12/23 12:50:31;;;;;;;74.82;71.63;;;;;;;;;;4968113;28;20071;-81
2023/12/23 12:53:01;;;;;;;49.10;46.83;;;;;;;;;;4950792;28;20043;-81
2023/12/23 12:55:29;;;;;;;61.40;58.95;;;;;;;;;;4960343;28;20416;-81
2023/12/23 12:57:55;;;;;;;59.30;56.90;;;;;;;;;;4963754;28;20047;-80
2023/12/23 13:00:22;;;;;;;58.92;56.58;;;;;;;;;;4961761;28;20051;-81
2023/12/23 13:02:48;;;;;;;65.35;62.38;;;;;;;;;;4969555;28;20138;-81
2023/12/23 13:05:15;;;;;;;50.05;47.97;;;;;;;;;;4957545;28;20039;-84
2023/12/23 13:07:42;;;;;;;56.42;54.00;;;;;;;;;;4949502;28;20051;-85
2023/12/23 13:10:08;;;;;;;57.78;55.13;;;;;;;;;;4957393;28;20169;-84
2023/12/23 13:12:36;;;;;;;62.83;60.15;;;;;;;;;;4967973;28;20055;-85
2023/12/23 13:15:03;;;;;;;74.43;71.05;;;;;;;;;;4945899;28;20044;-80
2023/12/23 13:17:29;;;;;;;59.00;56.42;;;;;;;;;;4944231;28;20107;-81
2023/12/23 13:19:56;;;;;;;52.92;50.53;;;;;;;;;;4943190;28;20134;-81
2023/12/23 13:22:23;;;;;;;65.38;62.65;;;;;;;;;;4952835;28;20082;-82
2023/12/23 13:24:49;;;;;;;69.68;66.88;;;;;;;;;;4952736;28;20098;-82
2023/12/23 13:27:17;;;;;;;61.20;58.75;;;;;;;;;;4942252;28;20095;-82
2023/12/23 13:29:46;;;;;;;62.20;59.70;;;;;;;;;;4953580;28;20526;-81
2023/12/23 13:32:13;;;;;;;57.10;54.67;;;;;;;;;;4950413;28;20047;-82
2023/12/23 13:34:40;;;;;;;70.72;67.95;;;;;;;;;;4938401;28;20466;-82
2023/12/23 13:37:06;;;;;;;64.00;61.38;;;;;;;;;;4955695;28;20051;-82
2023/12/23 13:39:33;;;;;;;65.50;63.15;;;;;;;;;;4957396;28;20055;-82
2023/12/23 13:41:59;;;;;;;68.40;65.88;;;;;;;;;;4956112;28;20138;-82
2023/12/23 13:44:26;;;;;;;74.10;71.55;;;;;;;;;;4954656;28;20118;-82
2023/12/23 13:47:00;;;;;;;59.95;57.83;;;;;;;;;;4956985;28;20140;-81
2023/12/23 13:49:26;;;;;;;54.47;52.40;;;;;;;;;;4957249;28;20051;-82
2023/12/23 13:51:53;;;;;;;61.03;58.90;;;;;;;;;;4957197;28;20051;-83
2023/12/23 13:54:19;;;;;;;58.88;56.28;;;;;;;;;;4957581;28;20054;-82
2023/12/23 13:56:47;;;;;;;57.85;55.47;;;;;;;;;;4957193;28;20087;-82
2023/12/23 13:59:13;;;;;;;60.53;58.30;;;;;;;;;;4957310;28;20433;-83
2023/12/23 14:01:39;;;;;;;55.70;53.28;;;;;;;;;;4952283;28;20168;-85
2023/12/23 14:04:07;;;;;;;62.47;60.20;;;;;;;;;;4956464;28;20043;-82
2023/12/23 14:06:34;;;;;;;74.00;71.47;;;;;;;;;;4955929;28;20091;-82
2023/12/23 14:09:00;;;;;;;60.17;58.00;;;;;;;;;;4955108;28;20110;-83
2023/12/23 14:11:27;;;;;;;56.95;54.80;;;;;;;;;;4947488;28;20051;-82
2023/12/23 14:13:53;;;;;;;43.22;41.30;;;;;;;;;;4956301;28;20130;-81